Time;durP1;ratioP1;P1;durP2;ratioP2;P2;SDS_P1;SDS_P2;PMS_P1;PMS_P2;Temp;Humidity;BMP_temperature;BMP_pressure;BME280_temperature;BME280_humidity;BME280_pressure;Samples;Min_cycle;Max_cycle;Signal;HPM_P1;HPM_P2
2022/06/22 00:00:29;;;;;;;4.15;2.10;;;;;;;;;;6103125;23;20469;-59
2022/06/22 00:03:04;;;;;;;6.28;1.95;;;;;;;;;;6104026;23;20582;-59
2022/06/22 00:05:54;;;;;;;4.25;2.17;;;;;;;;;;6103301;23;20182;-59
2022/06/22 00:08:26;;;;;;;3.47;2.00;;;;;;;;;;6128423;23;20155;-59
2022/06/22 00:11:02;;;;;;;2.95;2.10;;;;;;;;;;6129125;23;20196;-59
2022/06/22 00:13:31;;;;;;;3.30;1.92;;;;;;;;;;6103246;23;20154;-59
2022/06/22 00:16:01;;;;;;;2.38;2.00;;;;;;;;;;6102731;23;20175;-59
2022/06/22 00:18:28;;;;;;;5.40;2.10;;;;;;;;;;6128372;23;20241;-59
2022/06/22 00:20:58;;;;;;;4.95;2.17;;;;;;;;;;6128550;23;20237;-58
2022/06/22 00:23:38;;;;;;;4.90;2.03;;;;;;;;;;6127919;23;20170;-59
2022/06/22 00:26:31;;;;;;;3.05;1.67;;;;;;;;;;6128450;23;20173;-60
2022/06/22 00:29:05;;;;;;;3.83;2.28;;;;;;;;;;6071519;23;20181;-59
2022/06/22 00:31:35;;;;;;;6.25;2.10;;;;;;;;;;6128435;23;20186;-59
2022/06/22 00:34:08;;;;;;;2.90;2.10;;;;;;;;;;6127972;23;20159;-60
2022/06/22 00:36:47;;;;;;;7.05;2.00;;;;;;;;;;6127743;23;20159;-59
2022/06/22 00:39:17;;;;;;;3.30;2.08;;;;;;;;;;6127696;23;20695;-57
2022/06/22 00:42:14;;;;;;;5.20;1.95;;;;;;;;;;6103073;23;20205;-59
2022/06/22 00:44:59;;;;;;;5.70;1.95;;;;;;;;;;6101469;23;20226;-59
2022/06/22 00:47:30;;;;;;;7.07;2.00;;;;;;;;;;6128675;23;20159;-58
2022/06/22 00:50:11;;;;;;;5.20;2.08;;;;;;;;;;6129362;23;20268;-59
2022/06/22 00:52:51;;;;;;;2.80;2.10;;;;;;;;;;6129427;23;20183;-59
2022/06/22 00:55:27;;;;;;;3.53;1.95;;;;;;;;;;6104424;23;20159;-59
2022/06/22 00:58:03;;;;;;;3.33;2.30;;;;;;;;;;6129497;23;20177;-59
2022/06/22 01:00:32;;;;;;;5.70;2.15;;;;;;;;;;6104375;23;20173;-58
2022/06/22 01:03:05;;;;;;;5.15;2.03;;;;;;;;;;6104694;23;20171;-59
2022/06/22 01:05:50;;;;;;;7.22;2.20;;;;;;;;;;6105055;23;20186;-58
2022/06/22 01:08:39;;;;;;;3.78;1.95;;;;;;;;;;6104812;23;20154;-58
2022/06/22 01:14:14;;;;;;;4.20;2.13;;;;;;;;;;6079510;23;20182;-58
2022/06/22 01:16:43;;;;;;;5.40;2.38;;;;;;;;;;6104187;23;20469;-58
2022/06/22 01:19:46;;;;;;;4.55;2.00;;;;;;;;;;6104548;23;20190;-59
2022/06/22 01:22:44;;;;;;;4.90;2.65;;;;;;;;;;6125334;23;20623;-59
2022/06/22 01:25:46;;;;;;;4.20;2.35;;;;;;;;;;6105272;23;20154;-59
2022/06/22 01:28:14;;;;;;;3.15;2.17;;;;;;;;;;6011584;23;20204;-59
2022/06/22 01:30:44;;;;;;;3.20;1.88;;;;;;;;;;6012005;23;20173;-59
2022/06/22 01:33:18;;;;;;;4.10;2.20;;;;;;;;;;5989450;23;20469;-58
2022/06/22 01:35:45;;;;;;;4.15;2.40;;;;;;;;;;6012403;23;20176;-59
2022/06/22 01:38:13;;;;;;;3.15;2.10;;;;;;;;;;5988678;23;20172;-58
2022/06/22 01:40:49;;;;;;;3.30;2.40;;;;;;;;;;6011895;23;20536;-58
2022/06/22 01:43:29;;;;;;;5.28;2.72;;;;;;;;;;6011438;23;20200;-59
2022/06/22 01:46:31;;;;;;;2.97;2.00;;;;;;;;;;6011214;23;20589;-58
2022/06/22 01:49:10;;;;;;;3.55;2.15;;;;;;;;;;6001345;23;20212;-57
2022/06/22 01:51:50;;;;;;;4.63;2.10;;;;;;;;;;5988424;23;20227;-58
2022/06/22 01:54:24;;;;;;;4.55;2.60;;;;;;;;;;5988440;23;20607;-59
2022/06/22 01:56:54;;;;;;;3.90;2.88;;;;;;;;;;6011810;23;20177;-58
2022/06/22 01:59:21;;;;;;;4.85;2.40;;;;;;;;;;6011586;23;20224;-58
2022/06/22 02:01:59;;;;;;;4.32;2.33;;;;;;;;;;6049568;23;20185;-59
2022/06/22 02:04:50;;;;;;;3.30;2.45;;;;;;;;;;6103958;23;20155;-59
2022/06/22 02:07:48;;;;;;;6.65;2.58;;;;;;;;;;6128383;23;20162;-59
2022/06/22 02:10:32;;;;;;;3.92;2.20;;;;;;;;;;6128299;23;20167;-59
2022/06/22 02:13:21;;;;;;;2.30;2.08;;;;;;;;;;6102858;23;20193;-58
2022/06/22 02:16:06;;;;;;;4.45;2.50;;;;;;;;;;6128901;23;20177;-59
2022/06/22 02:18:49;;;;;;;5.18;2.67;;;;;;;;;;6103707;23;20233;-59
2022/06/22 02:21:16;;;;;;;3.05;2.65;;;;;;;;;;6128437;23;20474;-58
2022/06/22 02:23:44;;;;;;;3.45;2.55;;;;;;;;;;6128779;23;20176;-59
2022/06/22 02:26:11;;;;;;;5.28;2.50;;;;;;;;;;6128756;23;20174;-59
2022/06/22 02:28:39;;;;;;;4.85;2.83;;;;;;;;;;6128287;23;20193;-58
2022/06/22 02:31:07;;;;;;;6.57;3.20;;;;;;;;;;6102742;23;20188;-59
2022/06/22 02:33:36;;;;;;;3.50;3.00;;;;;;;;;;6128724;23;20193;-59
2022/06/22 02:36:03;;;;;;;5.25;2.80;;;;;;;;;;6103044;23;20174;-59
2022/06/22 02:38:30;;;;;;;4.22;2.63;;;;;;;;;;6103354;23;20198;-59
2022/06/22 02:46:35;;;;;;;4.22;2.75;;;;;;;;;;6117274;23;20161;-59
2022/06/22 02:49:11;;;;;;;3.88;2.95;;;;;;;;;;6104069;23;20198;-59
2022/06/22 02:51:44;;;;;;;4.05;2.70;;;;;;;;;;6103544;23;20185;-59
2022/06/22 02:54:27;;;;;;;4.90;2.53;;;;;;;;;;6104118;23;20178;-59
2022/06/22 02:57:00;;;;;;;4.45;2.90;;;;;;;;;;6079465;23;20170;-59
2022/06/22 02:59:28;;;;;;;3.13;2.50;;;;;;;;;;6103718;23;20155;-59
2022/06/22 03:01:55;;;;;;;4.45;2.83;;;;;;;;;;6128650;23;20174;-59
2022/06/22 03:04:23;;;;;;;5.78;2.85;;;;;;;;;;6128381;23;20249;-59
2022/06/22 03:06:51;;;;;;;3.90;2.90;;;;;;;;;;6128364;23;20174;-59
2022/06/22 03:09:19;;;;;;;4.10;2.72;;;;;;;;;;6128774;23;20170;-58
2022/06/22 03:11:51;;;;;;;4.72;2.90;;;;;;;;;;6128300;23;20198;-59
2022/06/22 03:14:26;;;;;;;3.53;2.50;;;;;;;;;;6128898;23;20158;-59
2022/06/22 03:16:57;;;;;;;7.28;3.40;;;;;;;;;;6103057;23;20602;-59
2022/06/22 03:19:33;;;;;;;4.47;2.85;;;;;;;;;;6128110;23;20590;-59
2022/06/22 03:22:01;;;;;;;4.70;2.83;;;;;;;;;;6128958;23;20185;-59
2022/06/22 03:24:54;;;;;;;5.35;2.70;;;;;;;;;;6127990;23;20583;-57
2022/06/22 03:27:27;;;;;;;6.90;2.75;;;;;;;;;;6104285;23;20215;-58
2022/06/22 03:30:11;;;;;;;6.50;3.05;;;;;;;;;;6103463;23;20155;-58
2022/06/22 03:32:49;;;;;;;3.92;2.65;;;;;;;;;;6103429;23;20193;-58
2022/06/22 03:35:41;;;;;;;6.63;2.95;;;;;;;;;;6103054;23;20169;-58
2022/06/22 03:38:13;;;;;;;4.43;2.90;;;;;;;;;;6128751;23;20158;-58
2022/06/22 03:40:51;;;;;;;5.05;3.13;;;;;;;;;;6102784;23;20181;-58
2022/06/22 03:43:23;;;;;;;4.90;3.30;;;;;;;;;;6103022;23;20169;-58
2022/06/22 03:45:54;;;;;;;5.90;3.03;;;;;;;;;;6103477;23;20169;-58
2022/06/22 03:48:21;;;;;;;3.75;2.95;;;;;;;;;;6079272;23;20253;-58
2022/06/22 03:51:05;;;;;;;3.72;2.70;;;;;;;;;;6103196;23;20196;-58
2022/06/22 03:53:41;;;;;;;4.25;3.08;;;;;;;;;;6104230;23;20182;-60
2022/06/22 03:56:16;;;;;;;5.88;2.88;;;;;;;;;;6097279;23;20636;-64
2022/06/22 03:58:45;;;;;;;3.13;2.53;;;;;;;;;;6126590;23;20197;-65
2022/06/22 04:01:13;;;;;;;2.83;2.30;;;;;;;;;;6126601;23;20194;-64
2022/06/22 04:03:41;;;;;;;4.38;2.95;;;;;;;;;;6102448;23;20202;-66
2022/06/22 04:06:16;;;;;;;3.67;2.65;;;;;;;;;;6100281;23;20194;-64
2022/06/22 04:08:43;;;;;;;4.50;2.63;;;;;;;;;;6101418;23;20254;-66
2022/06/22 04:11:14;;;;;;;4.90;3.03;;;;;;;;;;6125930;23;20209;-65
2022/06/22 04:13:49;;;;;;;3.72;2.83;;;;;;;;;;6127278;23;20206;-65
2022/06/22 04:16:21;;;;;;;5.30;4.05;;;;;;;;;;6125790;23;20194;-66
2022/06/22 04:18:53;;;;;;;4.53;3.00;;;;;;;;;;6102087;23;20202;-66
2022/06/22 04:21:26;;;;;;;4.13;2.90;;;;;;;;;;6126410;23;20260;-66
2022/06/22 04:24:11;;;;;;;3.33;2.92;;;;;;;;;;6128109;23;20232;-63
2022/06/22 04:26:49;;;;;;;4.55;3.00;;;;;;;;;;6103291;23;20487;-66
2022/06/22 04:29:18;;;;;;;3.22;2.92;;;;;;;;;;6103396;23;20197;-65
2022/06/22 04:31:53;;;;;;;5.03;3.20;;;;;;;;;;6128190;23;20202;-66
2022/06/22 04:34:36;;;;;;;6.40;3.20;;;;;;;;;;6103629;23;20201;-66
2022/06/22 04:37:20;;;;;;;5.20;3.42;;;;;;;;;;6128200;23;20202;-66
2022/06/22 04:39:49;;;;;;;4.28;3.22;;;;;;;;;;6128994;23;20220;-66
2022/06/22 04:42:17;;;;;;;3.33;3.03;;;;;;;;;;6128501;23;20194;-66
2022/06/22 04:44:47;;;;;;;3.20;2.90;;;;;;;;;;6129111;23;20194;-65
2022/06/22 04:47:18;;;;;;;4.82;3.42;;;;;;;;;;6127770;23;20277;-66
2022/06/22 04:49:50;;;;;;;4.75;3.70;;;;;;;;;;6101792;23;20261;-64
2022/06/22 04:52:52;;;;;;;5.43;3.45;;;;;;;;;;6128271;23;20206;-62
2022/06/22 04:55:23;;;;;;;6.22;3.05;;;;;;;;;;6127430;23;20205;-66
2022/06/22 04:57:52;;;;;;;4.90;3.38;;;;;;;;;;6102614;23;20257;-63
2022/06/22 05:00:34;;;;;;;8.57;3.65;;;;;;;;;;6126860;23;20198;-62
2022/06/22 05:03:05;;;;;;;3.60;3.30;;;;;;;;;;6102159;23;20201;-64
2022/06/22 05:05:34;;;;;;;4.07;3.47;;;;;;;;;;6127687;23;20194;-63
2022/06/22 05:08:09;;;;;;;3.83;3.13;;;;;;;;;;6126681;23;20194;-65
2022/06/22 05:10:42;;;;;;;4.30;3.53;;;;;;;;;;6100742;23;20197;-62
2022/06/22 05:13:16;;;;;;;4.35;3.50;;;;;;;;;;6125851;23;20578;-62
2022/06/22 05:15:45;;;;;;;3.40;3.10;;;;;;;;;;6129669;23;20169;-63
2022/06/22 05:18:20;;;;;;;5.25;3.58;;;;;;;;;;6104209;23;20597;-63
2022/06/22 05:20:52;;;;;;;3.78;3.17;;;;;;;;;;6104841;23;20165;-64
2022/06/22 05:23:22;;;;;;;4.55;3.53;;;;;;;;;;6129310;23;20608;-64
2022/06/22 05:26:00;;;;;;;4.80;3.00;;;;;;;;;;6105678;23;20162;-64
2022/06/22 05:28:30;;;;;;;3.85;3.45;;;;;;;;;;6129677;23;20226;-64
2022/06/22 05:31:07;;;;;;;4.65;3.38;;;;;;;;;;6129213;23;20609;-64
2022/06/22 05:33:38;;;;;;;3.88;3.15;;;;;;;;;;6104339;23;20464;-64
2022/06/22 05:36:10;;;;;;;4.55;3.05;;;;;;;;;;6129231;23;20162;-64
2022/06/22 05:38:41;;;;;;;3.50;3.20;;;;;;;;;;6129556;23;20498;-64
2022/06/22 05:41:09;;;;;;;3.35;2.80;;;;;;;;;;6129616;23;20213;-65
2022/06/22 05:43:37;;;;;;;5.15;3.38;;;;;;;;;;6129404;23;20178;-64
2022/06/22 05:46:06;;;;;;;7.97;3.10;;;;;;;;;;6104177;23;20209;-65
2022/06/22 05:48:40;;;;;;;5.18;3.17;;;;;;;;;;6129417;23;20209;-64
2022/06/22 05:51:18;;;;;;;3.97;3.15;;;;;;;;;;6104226;23;20177;-64
2022/06/22 05:53:53;;;;;;;6.25;3.33;;;;;;;;;;6104271;23;20196;-64
2022/06/22 05:56:29;;;;;;;3.10;2.80;;;;;;;;;;6105526;23;20162;-64
2022/06/22 05:59:14;;;;;;;3.25;2.95;;;;;;;;;;6104425;23;20197;-64
2022/06/22 06:01:59;;;;;;;5.60;3.30;;;;;;;;;;6103643;23;20162;-64
2022/06/22 06:04:33;;;;;;;3.90;3.15;;;;;;;;;;6128909;23;20723;-64
2022/06/22 06:07:28;;;;;;;5.95;3.42;;;;;;;;;;6103762;23;20613;-64
2022/06/22 06:09:55;;;;;;;4.63;3.50;;;;;;;;;;6127869;23;20195;-64
2022/06/22 06:12:37;;;;;;;5.07;3.42;;;;;;;;;;6104909;23;20205;-65
2022/06/22 06:15:06;;;;;;;9.20;3.42;;;;;;;;;;6104700;23;20154;-64
2022/06/22 06:17:45;;;;;;;5.75;3.20;;;;;;;;;;6104244;23;20170;-64
2022/06/22 06:20:24;;;;;;;3.75;3.20;;;;;;;;;;6129510;23;20154;-64
2022/06/22 06:22:56;;;;;;;4.13;3.15;;;;;;;;;;6103988;23;20189;-64
2022/06/22 06:28:23;;;;;;;3.45;3.15;;;;;;;;;;6107388;23;20162;-65
2022/06/22 06:30:52;;;;;;;4.00;2.65;;;;;;;;;;6103909;23;20162;-64
2022/06/22 06:33:23;;;;;;;3.45;3.13;;;;;;;;;;6103751;23;20194;-63
2022/06/22 06:36:05;;;;;;;4.80;3.70;;;;;;;;;;6103783;23;20162;-64
2022/06/22 06:38:41;;;;;;;4.13;2.67;;;;;;;;;;6128587;23;20169;-63
2022/06/22 06:41:27;;;;;;;3.35;2.78;;;;;;;;;;6103809;23;20163;-64
2022/06/22 06:43:58;;;;;;;4.75;2.47;;;;;;;;;;6128547;23;20228;-63
2022/06/22 06:46:29;;;;;;;3.25;2.80;;;;;;;;;;6103463;23;20218;-64
2022/06/22 06:48:58;;;;;;;3.50;2.35;;;;;;;;;;6103450;23;20205;-64
2022/06/22 06:51:26;;;;;;;2.78;2.53;;;;;;;;;;6102898;23;20185;-64
2022/06/22 06:54:12;;;;;;;4.03;2.83;;;;;;;;;;6103561;23;20209;-63
2022/06/22 06:56:48;;;;;;;6.75;3.30;;;;;;;;;;6103569;23;20158;-63
2022/06/22 06:59:21;;;;;;;3.38;2.80;;;;;;;;;;6129393;23;20154;-64
2022/06/22 07:01:49;;;;;;;3.35;2.80;;;;;;;;;;6128744;23;20166;-64
2022/06/22 07:04:29;;;;;;;4.50;2.95;;;;;;;;;;6128829;23;20529;-64
2022/06/22 07:07:02;;;;;;;5.05;2.88;;;;;;;;;;6103482;23;20169;-63
2022/06/22 07:09:33;;;;;;;3.28;2.40;;;;;;;;;;6103810;23;20159;-63
2022/06/22 07:12:12;;;;;;;7.32;2.75;;;;;;;;;;6103508;23;20236;-63
2022/06/22 07:14:41;;;;;;;7.10;2.70;;;;;;;;;;6103639;23;20166;-61
2022/06/22 07:17:11;;;;;;;2.80;2.38;;;;;;;;;;6128185;23;20178;-63
2022/06/22 07:19:55;;;;;;;4.30;2.90;;;;;;;;;;6103658;23;20174;-63
2022/06/22 07:22:34;;;;;;;5.78;2.60;;;;;;;;;;6105096;23;20162;-63
2022/06/22 07:25:09;;;;;;;3.70;2.60;;;;;;;;;;6079221;23;20159;-64
2022/06/22 07:27:44;;;;;;;7.22;2.35;;;;;;;;;;6103608;23;20154;-63
2022/06/22 07:30:17;;;;;;;4.50;2.33;;;;;;;;;;6103653;23;20224;-64
2022/06/22 07:33:06;;;;;;;3.42;2.40;;;;;;;;;;6129074;23;20269;-63
2022/06/22 07:35:39;;;;;;;3.95;2.70;;;;;;;;;;6128551;23;20198;-64
2022/06/22 07:38:27;;;;;;;4.18;2.78;;;;;;;;;;6128921;23;20170;-64
2022/06/22 07:43:40;;;;;;;6.25;2.40;;;;;;;;;;6128644;23;20166;-63
2022/06/22 07:46:08;;;;;;;4.47;2.33;;;;;;;;;;6128082;23;20184;-63
2022/06/22 07:48:43;;;;;;;5.32;2.25;;;;;;;;;;6103112;23;20198;-63
2022/06/22 07:51:17;;;;;;;3.95;2.28;;;;;;;;;;6102813;23;20161;-64
2022/06/22 07:54:16;;;;;;;2.85;2.38;;;;;;;;;;6103723;23;20232;-63
2022/06/22 07:56:46;;;;;;;3.17;2.30;;;;;;;;;;6011852;23;20173;-63
2022/06/22 07:59:20;;;;;;;3.92;2.40;;;;;;;;;;6013107;23;20201;-63
2022/06/22 08:01:48;;;;;;;2.78;2.50;;;;;;;;;;6013056;23;20180;-65
2022/06/22 08:04:22;;;;;;;4.95;2.67;;;;;;;;;;5989818;23;20592;-64
2022/06/22 08:06:56;;;;;;;3.10;2.28;;;;;;;;;;5989951;23;20172;-63
2022/06/22 08:09:31;;;;;;;8.85;2.75;;;;;;;;;;5989732;23;20176;-64
2022/06/22 08:12:18;;;;;;;5.03;2.42;;;;;;;;;;6012916;23;20168;-64
2022/06/22 08:14:48;;;;;;;2.83;2.05;;;;;;;;;;6012967;23;20201;-64
2022/06/22 08:17:41;;;;;;;2.55;2.22;;;;;;;;;;6022573;23;20161;-64
2022/06/22 08:20:14;;;;;;;5.38;2.45;;;;;;;;;;6013030;23;20256;-65
2022/06/22 08:22:43;;;;;;;3.05;2.00;;;;;;;;;;5989772;23;20447;-64
2022/06/22 08:25:11;;;;;;;5.95;2.40;;;;;;;;;;6012753;23;20612;-64
2022/06/22 08:27:39;;;;;;;3.38;2.47;;;;;;;;;;6012784;23;20173;-64
2022/06/22 08:30:09;;;;;;;3.92;1.98;;;;;;;;;;6012860;23;20181;-64
2022/06/22 08:32:42;;;;;;;3.72;2.22;;;;;;;;;;6046957;23;20605;-65
2022/06/22 08:35:28;;;;;;;3.00;2.60;;;;;;;;;;6130674;23;20159;-64
2022/06/22 08:38:09;;;;;;;3.42;2.65;;;;;;;;;;6105187;23;20154;-64
2022/06/22 08:40:44;;;;;;;5.78;2.50;;;;;;;;;;6104942;23;20225;-65
2022/06/22 08:43:27;;;;;;;3.03;2.40;;;;;;;;;;6105682;23;20253;-64
2022/06/22 08:46:02;;;;;;;4.70;2.50;;;;;;;;;;6129684;23;20465;-64
2022/06/22 08:48:41;;;;;;;3.83;2.13;;;;;;;;;;6104568;23;20198;-64
2022/06/22 08:51:13;;;;;;;3.00;2.00;;;;;;;;;;6104896;23;20158;-64
2022/06/22 08:53:52;;;;;;;5.55;2.15;;;;;;;;;;6129874;23;20178;-64
2022/06/22 08:56:20;;;;;;;5.28;2.53;;;;;;;;;;6129626;23;20162;-64
2022/06/22 08:58:52;;;;;;;3.42;2.25;;;;;;;;;;6129911;23;20171;-63
2022/06/22 09:01:39;;;;;;;3.72;2.03;;;;;;;;;;6129995;23;20213;-63
2022/06/22 09:04:17;;;;;;;5.15;2.40;;;;;;;;;;6139431;23;20163;-63
2022/06/22 09:06:54;;;;;;;3.42;2.20;;;;;;;;;;6129518;23;20200;-64
2022/06/22 09:09:49;;;;;;;4.15;2.20;;;;;;;;;;6129583;23;20154;-64
2022/06/22 09:12:37;;;;;;;2.67;1.80;;;;;;;;;;6129453;23;20442;-64
2022/06/22 09:15:22;;;;;;;7.55;2.50;;;;;;;;;;6129407;23;20162;-64
2022/06/22 09:17:49;;;;;;;4.90;1.63;;;;;;;;;;6129488;23;20461;-64
2022/06/22 09:20:22;;;;;;;3.10;1.60;;;;;;;;;;6129576;23;20170;-64
2022/06/22 09:22:55;;;;;;;2.88;2.05;;;;;;;;;;6130000;23;20193;-65
2022/06/22 09:25:27;;;;;;;2.42;1.90;;;;;;;;;;6129794;23;20166;-64
2022/06/22 09:28:09;;;;;;;1.90;1.70;;;;;;;;;;6129571;23;20154;-63
2022/06/22 09:30:45;;;;;;;3.03;1.60;;;;;;;;;;6129433;23;20159;-64
2022/06/22 09:33:51;;;;;;;4.18;1.70;;;;;;;;;;6129167;23;20643;-64
2022/06/22 09:36:30;;;;;;;1.95;1.75;;;;;;;;;;6012163;23;20216;-64
2022/06/22 09:39:06;;;;;;;2.00;1.55;;;;;;;;;;6012537;23;20318;-64
2022/06/22 09:42:02;;;;;;;2.60;1.60;;;;;;;;;;6011973;23;20176;-64
2022/06/22 09:45:07;;;;;;;2.38;1.98;;;;;;;;;;6012301;23;20296;-64
2022/06/22 09:48:08;;;;;;;3.88;1.83;;;;;;;;;;6012185;23;20165;-64
2022/06/22 09:50:44;;;;;;;3.33;1.67;;;;;;;;;;6012048;23;20173;-64
2022/06/22 09:53:33;;;;;;;2.42;1.70;;;;;;;;;;6012212;23;20181;-66
2022/06/22 09:56:25;;;;;;;2.55;1.75;;;;;;;;;;6012311;23;20183;-64
2022/06/22 09:59:07;;;;;;;2.60;1.70;;;;;;;;;;6012314;23;20456;-64
2022/06/22 10:01:53;;;;;;;3.65;1.73;;;;;;;;;;6012057;23;20596;-64
2022/06/22 10:04:30;;;;;;;2.10;1.90;;;;;;;;;;6012402;23;20177;-64
2022/06/22 10:07:05;;;;;;;4.10;1.80;;;;;;;;;;6012012;23;20236;-65
2022/06/22 10:09:47;;;;;;;1.90;1.75;;;;;;;;;;6034514;23;20578;-64
2022/06/22 10:12:48;;;;;;;1.90;1.70;;;;;;;;;;6104620;23;20166;-64
2022/06/22 10:15:46;;;;;;;2.13;1.60;;;;;;;;;;6104179;23;20186;-64
2022/06/22 10:18:31;;;;;;;2.33;1.52;;;;;;;;;;6129385;23;20170;-64
2022/06/22 10:21:12;;;;;;;2.25;1.40;;;;;;;;;;6104060;23;20154;-64
2022/06/22 10:23:48;;;;;;;2.10;1.42;;;;;;;;;;6104878;23;20158;-64
2022/06/22 10:26:46;;;;;;;2.70;1.73;;;;;;;;;;6128777;23;20220;-64
2022/06/22 10:29:19;;;;;;;7.25;1.90;;;;;;;;;;6128675;23;20249;-64
2022/06/22 10:32:01;;;;;;;4.15;1.90;;;;;;;;;;6129172;23;20516;-64
2022/06/22 10:34:58;;;;;;;2.22;1.50;;;;;;;;;;6104197;23;20186;-64
2022/06/22 10:38:10;;;;;;;8.02;1.60;;;;;;;;;;6128920;23;20166;-64
2022/06/22 10:47:06;;;;;;;2.55;1.30;;;;;;;;;;6129054;23;20194;-64
2022/06/22 10:50:00;;;;;;;2.47;1.58;;;;;;;;;;6118497;23;20205;-64
2022/06/22 10:52:58;;;;;;;2.22;1.50;;;;;;;;;;6128524;23;20174;-64
2022/06/22 10:55:39;;;;;;;1.88;1.27;;;;;;;;;;6103840;23;20197;-65
2022/06/22 10:58:18;;;;;;;3.03;1.40;;;;;;;;;;6128413;23;20490;-63
2022/06/22 11:00:53;;;;;;;6.38;1.67;;;;;;;;;;6103914;23;20158;-65
2022/06/22 11:03:45;;;;;;;2.47;1.33;;;;;;;;;;6104769;23;20162;-63
2022/06/22 11:06:47;;;;;;;4.25;1.63;;;;;;;;;;6128889;23;20159;-64
2022/06/22 11:09:39;;;;;;;4.63;1.52;;;;;;;;;;6084953;23;20182;-63
2022/06/22 11:12:25;;;;;;;3.28;1.17;;;;;;;;;;6103692;23;20453;-64
2022/06/22 11:14:59;;;;;;;1.50;1.30;;;;;;;;;;6128515;23;20237;-64
2022/06/22 11:17:32;;;;;;;1.48;1.30;;;;;;;;;;6129206;23;20162;-64
2022/06/22 11:20:12;;;;;;;2.28;1.30;;;;;;;;;;6128317;23;20162;-64
2022/06/22 11:22:41;;;;;;;3.20;1.40;;;;;;;;;;6128734;23;20458;-64
2022/06/22 11:31:23;;;;;;;2.28;1.38;;;;;;;;;;6127916;23;20614;-65
2022/06/22 11:34:14;;;;;;;2.55;1.20;;;;;;;;;;6103050;23;20194;-65
2022/06/22 11:36:54;;;;;;;1.50;1.23;;;;;;;;;;6103634;23;20184;-64
2022/06/22 11:39:51;;;;;;;1.95;1.40;;;;;;;;;;6128536;23;20159;-64
2022/06/22 11:42:55;;;;;;;1.58;1.23;;;;;;;;;;6104228;23;20242;-64
2022/06/22 11:46:07;;;;;;;1.95;1.20;;;;;;;;;;6122302;23;20562;-63
2022/06/22 11:49:13;;;;;;;1.80;1.08;;;;;;;;;;6117699;23;20248;-63
2022/06/22 11:52:16;;;;;;;1.52;1.30;;;;;;;;;;6127275;23;20198;-62
2022/06/22 11:54:43;;;;;;;3.97;1.50;;;;;;;;;;6101843;23;20289;-62
2022/06/22 11:57:35;;;;;;;2.22;0.93;;;;;;;;;;6127141;23;20194;-61
2022/06/22 12:00:30;;;;;;;1.67;1.02;;;;;;;;;;6101117;23;20198;-58
2022/06/22 12:03:26;;;;;;;2.22;1.30;;;;;;;;;;6127833;23;20217;-63
2022/06/22 12:06:12;;;;;;;2.05;1.27;;;;;;;;;;6100412;23;20268;-64
2022/06/22 12:09:18;;;;;;;2.47;1.40;;;;;;;;;;6127517;23;20205;-64
2022/06/22 12:11:54;;;;;;;3.53;1.40;;;;;;;;;;6126898;23;20482;-64
2022/06/22 12:15:05;;;;;;;2.88;1.50;;;;;;;;;;6125849;23;20284;-65
2022/06/22 12:17:53;;;;;;;2.25;1.38;;;;;;;;;;6107853;23;20198;-64
2022/06/22 12:20:44;;;;;;;1.52;1.10;;;;;;;;;;6101506;23;20205;-64
2022/06/22 12:23:18;;;;;;;1.42;1.33;;;;;;;;;;6101947;23;20200;-65
2022/06/22 12:25:50;;;;;;;1.60;1.50;;;;;;;;;;6126690;23;20206;-64
2022/06/22 12:28:28;;;;;;;1.50;1.13;;;;;;;;;;6126100;23;20508;-63
2022/06/22 12:31:12;;;;;;;1.55;1.15;;;;;;;;;;6126751;23;20202;-64
2022/06/22 12:34:06;;;;;;;1.77;1.30;;;;;;;;;;6126712;23;20205;-64
2022/06/22 12:36:38;;;;;;;3.80;1.67;;;;;;;;;;6126941;23;20659;-63
2022/06/22 12:39:10;;;;;;;2.30;1.20;;;;;;;;;;6101749;23;20256;-64
2022/06/22 12:41:44;;;;;;;1.83;1.15;;;;;;;;;;6101137;23;20233;-63
2022/06/22 12:44:41;;;;;;;2.35;1.20;;;;;;;;;;6126912;23;20640;-64
2022/06/22 12:47:41;;;;;;;1.30;1.10;;;;;;;;;;6128833;23;20202;-64
2022/06/22 12:50:51;;;;;;;10.43;2.80;;;;;;;;;;6128374;23;20210;-64
2022/06/22 12:53:28;;;;;;;4.50;1.63;;;;;;;;;;6128623;23;20194;-64
2022/06/22 12:56:01;;;;;;;2.08;1.20;;;;;;;;;;6127905;23;20219;-64
2022/06/22 12:58:43;;;;;;;4.22;1.83;;;;;;;;;;6102185;23;20198;-64
2022/06/22 13:01:10;;;;;;;3.42;1.38;;;;;;;;;;6127775;23;20407;-63
2022/06/22 13:03:48;;;;;;;5.13;1.13;;;;;;;;;;6128320;23;20205;-64
2022/06/22 13:06:16;;;;;;;2.63;1.35;;;;;;;;;;6103115;23;20194;-64
2022/06/22 13:08:43;;;;;;;5.15;1.00;;;;;;;;;;6128767;23;20213;-65
2022/06/22 13:11:18;;;;;;;1.98;1.10;;;;;;;;;;6127370;23;20220;-63
2022/06/22 13:14:06;;;;;;;1.10;0.73;;;;;;;;;;6123180;23;20198;-64
2022/06/22 13:16:33;;;;;;;2.42;0.88;;;;;;;;;;6128288;23;20201;-64
2022/06/22 13:19:03;;;;;;;2.25;0.95;;;;;;;;;;6123537;23;20206;-64
2022/06/22 13:21:42;;;;;;;1.90;0.80;;;;;;;;;;6103035;23;20201;-65
2022/06/22 13:24:35;;;;;;;1.05;0.80;;;;;;;;;;6127574;23;20217;-65
2022/06/22 13:27:20;;;;;;;2.00;1.10;;;;;;;;;;6127068;23;20261;-65
2022/06/22 13:29:56;;;;;;;0.70;0.70;;;;;;;;;;6128038;23;20194;-65
2022/06/22 13:32:25;;;;;;;1.00;0.88;;;;;;;;;;6102634;23;20201;-65
2022/06/22 13:34:56;;;;;;;4.40;0.70;;;;;;;;;;6102426;23;20206;-66
2022/06/22 13:37:32;;;;;;;1.40;0.85;;;;;;;;;;6102664;23;20194;-64
2022/06/22 13:40:29;;;;;;;1.35;0.70;;;;;;;;;;6103053;23;20205;-64
2022/06/22 13:43:21;;;;;;;4.05;0.90;;;;;;;;;;6128524;23;20201;-65
2022/06/22 13:45:59;;;;;;;1.25;0.70;;;;;;;;;;6103093;23;20202;-65
2022/06/22 13:48:55;;;;;;;1.88;0.63;;;;;;;;;;6127490;23;20295;-65
2022/06/22 13:51:40;;;;;;;1.27;0.50;;;;;;;;;;6010279;23;20231;-65
2022/06/22 13:54:35;;;;;;;0.93;0.65;;;;;;;;;;6010637;23;20212;-65
2022/06/22 13:57:18;;;;;;;0.82;0.52;;;;;;;;;;6010901;23;20197;-66
2022/06/22 13:59:58;;;;;;;0.55;0.40;;;;;;;;;;6009189;23;20201;-65
2022/06/22 14:02:38;;;;;;;0.60;0.60;;;;;;;;;;6008535;23;20415;-66
2022/06/22 14:05:30;;;;;;;0.98;0.47;;;;;;;;;;6008390;23;20205;-65
2022/06/22 14:08:27;;;;;;;1.30;0.68;;;;;;;;;;6009916;23;20264;-66
2022/06/22 14:11:03;;;;;;;1.15;0.50;;;;;;;;;;6010554;23;20294;-66
2022/06/22 14:13:48;;;;;;;3.53;0.60;;;;;;;;;;6010878;23;20196;-66
2022/06/22 14:16:30;;;;;;;1.85;0.60;;;;;;;;;;5987108;23;20212;-66
2022/06/22 14:19:01;;;;;;;1.15;0.65;;;;;;;;;;6010316;23;20200;-66
2022/06/22 14:21:44;;;;;;;1.00;0.60;;;;;;;;;;6010171;23;20292;-66
2022/06/22 14:24:14;;;;;;;1.70;0.90;;;;;;;;;;6010570;23;20643;-66
2022/06/22 14:27:04;;;;;;;16.33;3.33;;;;;;;;;;6014051;23;20234;-66
2022/06/22 14:29:45;;;;;;;1.35;0.70;;;;;;;;;;6061183;23;20198;-67
2022/06/22 14:32:34;;;;;;;0.93;0.40;;;;;;;;;;6102264;23;20217;-66
2022/06/22 14:35:32;;;;;;;0.93;0.68;;;;;;;;;;6127852;23;20221;-65
2022/06/22 14:37:59;;;;;;;1.20;0.60;;;;;;;;;;6127678;23;20200;-65
2022/06/22 14:40:51;;;;;;;1.02;0.50;;;;;;;;;;6127736;23;20194;-66
2022/06/22 14:43:56;;;;;;;1.27;0.88;;;;;;;;;;6127287;23;20202;-65
2022/06/22 14:47:00;;;;;;;1.92;0.80;;;;;;;;;;6009448;23;20204;-66
2022/06/22 14:50:33;;;;;;;1.05;0.60;;;;;;;;;;6010269;23;20254;-64
2022/06/22 14:53:09;;;;;;;6.07;1.58;;;;;;;;;;5914019;23;20301;-64
2022/06/22 14:55:37;;;;;;;2.25;0.80;;;;;;;;;;5987674;23;20225;-64
2022/06/22 14:58:15;;;;;;;1.13;0.70;;;;;;;;;;6011113;23;20177;-64
2022/06/22 15:00:56;;;;;;;2.63;0.65;;;;;;;;;;6011068;23;20169;-65
2022/06/22 15:03:32;;;;;;;23.73;3.53;;;;;;;;;;6011106;23;20187;-63
2022/06/22 15:06:05;;;;;;;0.98;0.70;;;;;;;;;;6010906;23;20616;-63
2022/06/22 15:08:58;;;;;;;1.60;0.70;;;;;;;;;;6011260;23;20172;-69
2022/06/22 15:14:16;;;;;;;4.07;0.73;;;;;;;;;;6011201;23;20596;-67
2022/06/22 15:16:48;;;;;;;0.85;0.80;;;;;;;;;;6011097;23;20251;-66
2022/06/22 15:19:22;;;;;;;2.75;0.80;;;;;;;;;;5988065;23;20169;-66
2022/06/22 15:21:54;;;;;;;1.67;0.90;;;;;;;;;;6028528;23;20245;-67
2022/06/22 15:24:41;;;;;;;5.75;1.65;;;;;;;;;;6103884;23;20589;-66
2022/06/22 15:27:17;;;;;;;3.72;1.42;;;;;;;;;;6128325;23;20158;-63
2022/06/22 15:29:55;;;;;;;4.97;1.13;;;;;;;;;;6102928;23;20593;-66
2022/06/22 15:32:27;;;;;;;3.15;0.85;;;;;;;;;;6096569;23;20276;-66
2022/06/22 15:35:06;;;;;;;0.80;0.70;;;;;;;;;;6103723;23;20218;-66
2022/06/22 15:37:45;;;;;;;0.70;0.60;;;;;;;;;;6101929;23;20268;-67
2022/06/22 15:40:25;;;;;;;1.25;0.82;;;;;;;;;;6102456;23;20205;-66
2022/06/22 15:43:17;;;;;;;1.10;0.80;;;;;;;;;;6126915;23;20221;-66
2022/06/22 15:45:57;;;;;;;3.38;0.70;;;;;;;;;;6127349;23;20244;-66
2022/06/22 15:48:33;;;;;;;2.95;0.90;;;;;;;;;;6126525;23;20729;-67
2022/06/22 15:51:38;;;;;;;1.58;0.75;;;;;;;;;;6079762;23;20541;-67
2022/06/22 15:54:09;;;;;;;2.85;0.85;;;;;;;;;;6127247;23;20224;-68
2022/06/22 15:56:45;;;;;;;1.75;0.90;;;;;;;;;;6101974;23;20206;-66
2022/06/22 15:59:33;;;;;;;1.27;0.90;;;;;;;;;;6127341;23;20221;-67
2022/06/22 16:02:00;;;;;;;2.15;0.80;;;;;;;;;;6100992;23;20197;-67
2022/06/22 16:04:44;;;;;;;3.03;1.08;;;;;;;;;;6126883;23;20645;-67
2022/06/22 16:07:22;;;;;;;2.85;0.82;;;;;;;;;;6101170;23;20194;-68
2022/06/22 16:10:11;;;;;;;1.92;0.80;;;;;;;;;;6127359;23;20213;-66
2022/06/22 16:16:02;;;;;;;2.45;0.80;;;;;;;;;;6126342;23;20214;-67
2022/06/22 16:19:09;;;;;;;2.90;0.55;;;;;;;;;;6103291;23;20581;-67
2022/06/22 16:22:03;;;;;;;1.27;0.80;;;;;;;;;;6103692;23;20165;-68
2022/06/22 16:24:42;;;;;;;1.52;0.70;;;;;;;;;;6125122;23;20174;-67
2022/06/22 16:27:18;;;;;;;0.82;0.60;;;;;;;;;;6104840;23;20169;-68